Terminal Aerodrome Forecast
Issued by NWS Pocatello, ID

Home | Current Version | Previous Version | Text Only | Print | Product List | Glossary On
Versions: 1 2 3 4 5 6 7 8 9 10 11 12 13 14 15 16
000
FTUS45 KPIH 242326
TAFBYI
TAF
KBYI 242326Z 2500/2524 26010KT P6SM FEW040
     FM250300 20006KT P6SM SCT040 SCT200
     FM251000 07006KT P6SM FEW025
     FM251800 07010KT P6SM BKN120 BKN160
     FM252200 08008KT P6SM FEW100 SCT160=

USA.gov is the U.S. government's official web portal to all federal, state and local government web resources and services.